MMTJ/TIJ METAR and TAF weather

Enter ICAO airport designator
Station Type Date Time Source
MMTJ METAR 2018/12/15 19:49 UTC NOAA

MMTJ 151949Z 29006KT 7SM FEW170 21/M02 A3008 RMK 8/030 HZY


Station Type Date Time Source
MMTJ Decoded METAR 2018/12/15 19:49 UTC NOAA

Tijuana International Airport , Mexico (MMTJ) 32-33N 116-58W
Dec 15, 2018 - 02:49 PM EST / 2018.12.15 1949 UTC
Wind: from the WNW (290 degrees) at 7 MPH (6 KT):0
Visibility: 7 mile(s):0
Sky conditions: mostly clear
Temperature: 69 F (21 C)
Dew Point: 28 F (-2 C)
Relative Humidity: 21%
Pressure (altimeter): 30.08 in. Hg (1018 hPa)
ob: MMTJ 151949Z 29006KT 7SM FEW170 21/M02 A3008 RMK 8/030 HZY
cycle: 20

Station Type Date Time Source
MMTJ TAF 2018/12/15 18:33 UTC NOAA

TAF MMTJ 151628Z 1518/1624 29005KT P6SM BKN140 BKN200 TX22/1621Z TN12/1612Z
BECMG 1520/1521 36010KT
FM160600 36005KT P6SM SCT140 BKN200
FM161700 33010KT P6SM SKC


Example: see airport list